Time,TemperatureF,DewpointF,PressureIn,WindDirection,WindDirectionDegrees,WindSpeedMPH,WindSpeedGustMPH,Humidity,HourlyPrecipIn,Conditions,Clouds,dailyrainin,SoftwareType,DateUTC
2013-01-27 00:00:00,36.2,34.3,23.99,North,0,0.0,-999.0,93,0.00,,,0.04,,2013-01-27 08:00:00,
2013-01-27 01:00:00,36.4,34.7,23.98,North,0,0.0,-999.0,94,0.00,,,0.04,,2013-01-27 09:00:00,
2013-01-27 02:00:00,35.6,34.0,23.97,North,0,0.0,-999.0,94,0.00,,,0.02,,2013-01-27 10:00:00,
2013-01-27 03:00:00,35.6,34.3,23.97,North,0,0.0,-999.0,95,0.00,,,0.02,,2013-01-27 11:00:00,
2013-01-27 04:00:00,34.9,33.6,23.96,North,0,0.0,-999.0,95,0.00,,,0.02,,2013-01-27 12:00:00,
2013-01-27 05:00:00,31.0,29.7,23.94,North,0,0.0,-999.0,95,0.00,,,0.00,,2013-01-27 13:00:00,
2013-01-27 06:00:00,30.1,28.8,23.95,North,0,0.0,-999.0,95,0.02,,,0.02,,2013-01-27 14:00:00,
2013-01-27 07:07:00,28.4,27.2,23.95,North,0,0.0,-999.0,95,0.00,,,0.02,,2013-01-27 15:07:00,
2013-01-27 08:00:00,28.3,27.0,23.98,North,0,0.0,-999.0,95,0.00,,,0.02,,2013-01-27 16:00:00,
2013-01-27 09:06:00,29.0,27.7,23.98,North,0,0.0,-999.0,95,0.00,,,0.02,,2013-01-27 17:06:00,
2013-01-27 10:00:00,28.8,27.0,23.99,North,0,0.0,-999.0,93,0.00,,,0.02,,2013-01-27 18:00:00,
2013-01-27 11:07:00,29.2,26.4,23.99,North,0,0.0,-999.0,89,0.00,,,0.02,,2013-01-27 19:07:00,
2013-01-27 12:00:00,27.9,25.7,23.98,North,0,0.0,-999.0,91,0.00,,,0.02,,2013-01-27 20:00:00,
2013-01-27 13:06:00,27.0,24.8,23.98,North,0,0.0,-999.0,91,0.00,,,0.02,,2013-01-27 21:06:00,
2013-01-27 14:00:00,26.5,23.4,23.95,North,0,0.0,-999.0,88,0.00,,,0.02,,2013-01-27 22:00:00,
2013-01-27 15:06:00,25.7,23.2,23.95,North,0,0.0,-999.0,90,0.00,,,0.02,,2013-01-27 23:06:00,
2013-01-27 16:00:00,25.4,22.9,23.93,North,0,0.0,-999.0,90,0.00,,,0.02,,2013-01-28 00:00:00,
2013-01-27 17:07:00,25.6,23.6,23.93,North,0,0.0,-999.0,92,0.00,,,0.02,,2013-01-28 01:07:00,
2013-01-27 18:00:00,25.2,23.0,23.95,North,0,0.0,-999.0,91,0.00,,,0.02,,2013-01-28 02:00:00,
2013-01-27 19:00:00,25.6,23.3,23.97,North,0,0.0,-999.0,91,0.00,,,0.02,,2013-01-28 03:00:00,
2013-01-27 20:00:00,25.6,23.3,23.97,North,0,0.0,-999.0,91,0.02,,,0.04,,2013-01-28 04:00:00,
2013-01-27 21:00:00,25.6,22.8,23.97,North,0,0.0,-999.0,89,0.00,,,0.04,,2013-01-28 05:00:00,
2013-01-27 22:00:00,24.8,21.0,23.98,North,0,0.0,-999.0,85,0.00,,,0.04,,2013-01-28 06:00:00,
2013-01-27 23:00:00,24.1,20.8,23.98,North,0,0.0,-999.0,87,0.00,,,0.04,,2013-01-28 07:00:00,